createdAt,value
2023-01-18T00:01:19.651Z,19.67
2023-01-18T00:03:48.127Z,17.67
2023-01-18T00:06:16.620Z,18.80
2023-01-18T00:08:44.743Z,19.00
2023-01-18T00:11:15.642Z,17.48
2023-01-18T00:13:43.855Z,18.95
2023-01-18T00:16:14.866Z,19.08
2023-01-18T00:18:43.024Z,18.55
2023-01-18T00:21:12.304Z,19.27
2023-01-18T00:23:39.831Z,18.40
2023-01-18T00:26:09.892Z,17.85
2023-01-18T00:28:40.069Z,19.77
2023-01-18T00:31:20.364Z,20.02
2023-01-18T00:33:50.753Z,16.10
2023-01-18T00:36:18.925Z,16.27
2023-01-18T00:38:54.132Z,17.00
2023-01-18T00:41:23.239Z,17.33
2023-01-18T00:43:52.034Z,16.77
2023-01-18T00:46:23.069Z,17.55
2023-01-18T00:48:52.422Z,17.10
2023-01-18T00:51:25.533Z,16.10
2023-01-18T00:53:53.670Z,18.73
2023-01-18T00:56:22.595Z,18.52
2023-01-18T00:58:50.672Z,18.60
2023-01-18T01:01:18.317Z,18.95
2023-01-18T01:04:04.904Z,18.50
2023-01-18T01:06:47.164Z,16.70
2023-01-18T01:09:21.620Z,17.08
2023-01-18T01:12:09.123Z,15.18
2023-01-18T01:14:58.938Z,16.42
2023-01-18T01:17:47.607Z,16.50
2023-01-18T01:20:34.765Z,16.70
2023-01-18T01:23:34.048Z,18.55
2023-01-18T01:26:08.515Z,18.00
2023-01-18T01:28:41.109Z,17.40
2023-01-18T01:31:12.083Z,19.08
2023-01-18T01:33:40.404Z,17.65
2023-01-18T01:36:14.353Z,18.67
2023-01-18T01:38:42.368Z,19.40
2023-01-18T01:41:33.751Z,18.65
2023-01-18T01:44:04.779Z,18.40
2023-01-18T01:46:45.516Z,18.42
2023-01-18T01:49:21.607Z,19.13
2023-01-18T01:52:02.423Z,16.08
2023-01-18T01:54:42.309Z,19.67
2023-01-18T01:57:10.969Z,19.02
2023-01-18T01:59:43.296Z,18.80
2023-01-18T02:02:11.747Z,20.35
2023-01-18T02:04:44.289Z,20.45
2023-01-18T02:07:13.690Z,19.70
2023-01-18T02:09:41.852Z,20.85
2023-01-18T02:12:09.585Z,18.58
2023-01-18T02:14:37.207Z,21.23
2023-01-18T02:17:33.449Z,22.02
2023-01-18T02:20:10.139Z,20.80
2023-01-18T02:23:23.849Z,20.52
2023-01-18T02:26:09.513Z,19.27
2023-01-18T02:28:39.649Z,21.55
2023-01-18T02:31:17.771Z,22.42
2023-01-18T02:33:47.192Z,21.13
2023-01-18T02:36:31.067Z,20.55
2023-01-18T02:42:04.813Z,20.52
2023-01-18T02:45:04.623Z,23.45
2023-01-18T02:47:33.954Z,19.38
2023-01-18T02:50:03.730Z,22.15
2023-01-18T02:52:47.353Z,22.67
2023-01-18T02:55:41.250Z,19.83
2023-01-18T02:58:32.502Z,22.75
2023-01-18T03:01:05.528Z,22.50
2023-01-18T03:03:35.104Z,22.33
2023-01-18T03:06:07.900Z,24.23
2023-01-18T03:08:43.012Z,24.40
2023-01-18T03:11:39.736Z,22.90
2023-01-18T03:14:31.760Z,24.25
2023-01-18T03:17:17.779Z,23.58
2023-01-18T03:20:08.069Z,23.55
2023-01-18T03:23:12.721Z,23.20
2023-01-18T03:28:36.607Z,22.90
2023-01-18T03:31:28.246Z,24.45
2023-01-18T03:34:20.283Z,23.65
2023-01-18T03:36:54.296Z,23.45
2023-01-18T03:39:34.086Z,23.17
2023-01-18T03:42:06.785Z,23.33
2023-01-18T03:44:37.365Z,22.63
2023-01-18T03:47:06.713Z,23.60
2023-01-18T03:49:35.551Z,24.48
2023-01-18T03:52:22.503Z,23.58
2023-01-18T03:55:10.662Z,23.58
2023-01-18T03:57:50.561Z,23.98
2023-01-18T04:00:18.879Z,24.70
2023-01-18T04:02:49.194Z,23.90
2023-01-18T04:05:18.283Z,23.10
2023-01-18T04:07:45.885Z,24.60
2023-01-18T04:10:13.849Z,23.73
2023-01-18T04:12:41.396Z,22.55
2023-01-18T04:15:09.718Z,24.45
2023-01-18T04:17:37.280Z,25.55
2023-01-18T04:20:05.461Z,23.17
2023-01-18T04:22:33.122Z,24.65
2023-01-18T04:25:01.032Z,25.85
2023-01-18T04:27:28.624Z,27.35
2023-01-18T04:29:58.556Z,25.85
2023-01-18T04:32:26.368Z,26.92
2023-01-18T04:34:54.475Z,28.20
2023-01-18T04:37:30.436Z,26.33
2023-01-18T04:39:58.152Z,24.88
2023-01-18T04:42:27.062Z,27.20
2023-01-18T04:44:54.560Z,26.75
2023-01-18T04:47:22.789Z,25.33
2023-01-18T04:49:50.360Z,25.98
2023-01-18T04:52:19.283Z,28.35
2023-01-18T04:54:46.879Z,26.77
2023-01-18T04:57:14.685Z,29.08
2023-01-18T04:59:46.060Z,27.90
2023-01-18T05:02:16.017Z,28.45
2023-01-18T05:04:45.069Z,30.27
2023-01-18T05:07:13.149Z,29.50
2023-01-18T05:09:40.778Z,26.77
2023-01-18T05:12:08.709Z,29.10
2023-01-18T05:14:36.376Z,28.98
2023-01-18T05:17:04.022Z,30.98
2023-01-18T05:19:31.631Z,30.17
2023-01-18T05:21:59.691Z,29.58
2023-01-18T05:24:29.806Z,29.70
2023-01-18T05:26:57.612Z,31.10
2023-01-18T05:29:25.524Z,31.55
2023-01-18T05:31:53.645Z,30.58
2023-01-18T05:34:21.207Z,35.15
2023-01-18T05:36:49.470Z,28.08
2023-01-18T05:39:17.091Z,31.00
2023-01-18T05:41:45.066Z,30.65
2023-01-18T05:44:13.090Z,29.23
2023-01-18T05:46:40.587Z,29.35
2023-01-18T05:49:08.117Z,29.92
2023-01-18T05:51:35.951Z,32.53
2023-01-18T05:54:03.786Z,28.73
2023-01-18T05:56:31.695Z,30.60
2023-01-18T05:58:59.639Z,33.05
2023-01-18T06:01:29.405Z,31.15
2023-01-18T06:03:56.885Z,31.27
2023-01-18T06:06:24.621Z,33.00
2023-01-18T06:08:52.631Z,30.08
2023-01-18T06:11:20.091Z,30.58
2023-01-18T06:13:47.958Z,30.08
2023-01-18T06:16:15.452Z,30.48
2023-01-18T06:18:43.138Z,32.38
2023-01-18T06:21:11.946Z,32.38
2023-01-18T06:23:40.088Z,30.15
2023-01-18T06:26:08.083Z,29.33
2023-01-18T06:28:35.860Z,30.23
2023-01-18T06:31:05.520Z,29.33
2023-01-18T06:33:35.072Z,30.05
2023-01-18T06:36:03.427Z,29.02
2023-01-18T06:38:31.488Z,28.75
2023-01-18T06:40:59.593Z,29.50
2023-01-18T06:43:27.138Z,29.70
2023-01-18T06:45:56.503Z,32.35
2023-01-18T06:48:26.380Z,30.80
2023-01-18T06:50:57.080Z,31.40
2023-01-18T06:53:25.833Z,33.10
2023-01-18T06:55:58.232Z,32.00
2023-01-18T06:58:28.180Z,30.75
2023-01-18T07:00:56.566Z,32.45
2023-01-18T07:03:25.797Z,32.13
2023-01-18T07:05:58.794Z,29.98
2023-01-18T07:08:27.492Z,31.70
2023-01-18T07:10:55.392Z,31.20
2023-01-18T07:13:23.980Z,31.83
2023-01-18T07:16:01.161Z,31.83
2023-01-18T07:18:30.541Z,32.50
2023-01-18T07:21:10.120Z,30.73
2023-01-18T07:23:39.972Z,33.88
2023-01-18T07:26:15.582Z,32.50
2023-01-18T07:28:47.603Z,32.85
2023-01-18T07:31:16.545Z,31.83
2023-01-18T07:33:44.675Z,32.33
2023-01-18T07:36:12.945Z,33.47
2023-01-18T07:38:40.634Z,32.45
2023-01-18T07:41:11.248Z,31.70
2023-01-18T07:43:38.858Z,32.75
2023-01-18T07:46:08.400Z,30.88
2023-01-18T07:48:38.803Z,33.53
2023-01-18T07:51:08.876Z,32.63
2023-01-18T07:53:37.952Z,31.88
2023-01-18T07:56:09.377Z,30.27
2023-01-18T07:58:37.124Z,32.35
2023-01-18T08:01:07.173Z,29.88
2023-01-18T08:03:36.362Z,32.33
2023-01-18T08:06:07.306Z,30.05
2023-01-18T08:08:38.153Z,30.85
2023-01-18T08:11:07.449Z,29.67
2023-01-18T08:13:35.854Z,30.60
2023-01-18T08:16:06.674Z,30.13
2023-01-18T08:18:34.876Z,31.30
2023-01-18T08:21:03.567Z,31.05
2023-01-18T08:23:34.224Z,28.15
2023-01-18T08:26:05.994Z,32.42
2023-01-18T08:28:34.907Z,28.88
2023-01-18T08:31:12.471Z,33.60
2023-01-18T08:33:46.041Z,33.42
2023-01-18T08:36:22.530Z,29.77
2023-01-18T08:38:56.871Z,32.10
2023-01-18T08:41:28.632Z,31.40
2023-01-18T08:43:57.813Z,30.80
2023-01-18T08:46:26.218Z,33.97
2023-01-18T08:48:55.773Z,32.30
2023-01-18T08:51:26.148Z,31.27
2023-01-18T08:53:56.624Z,31.15
2023-01-18T08:56:25.030Z,31.92
2023-01-18T08:58:52.812Z,32.85
2023-01-18T09:01:23.471Z,31.52
2023-01-18T09:03:55.224Z,37.20
2023-01-18T09:06:22.972Z,37.10
2023-01-18T09:08:51.593Z,35.25
2023-01-18T09:11:19.193Z,38.63
2023-01-18T09:13:59.748Z,37.42
2023-01-18T09:16:28.376Z,35.15
2023-01-18T09:18:57.639Z,33.00
2023-01-18T09:21:28.044Z,36.50
2023-01-18T09:23:56.407Z,38.13
2023-01-18T09:26:24.366Z,34.90
2023-01-18T09:28:53.466Z,37.50
2023-01-18T09:31:23.247Z,39.25
2023-01-18T09:33:53.999Z,38.28
2023-01-18T09:36:29.517Z,38.95
2023-01-18T09:38:57.550Z,37.95
2023-01-18T09:41:42.901Z,37.45
2023-01-18T09:44:34.853Z,33.78
2023-01-18T09:47:06.111Z,33.22
2023-01-18T09:49:57.502Z,37.38
2023-01-18T09:52:50.877Z,35.80
2023-01-18T09:55:29.134Z,37.37
2023-01-18T09:58:38.913Z,39.05
2023-01-18T10:01:12.873Z,36.70
2023-01-18T10:03:42.020Z,41.83
2023-01-18T10:06:15.739Z,38.30
2023-01-18T10:09:12.131Z,40.35
2023-01-18T10:11:47.510Z,40.47
2023-01-18T10:14:22.653Z,40.72
2023-01-18T10:17:01.678Z,38.42
2023-01-18T10:19:31.784Z,37.15
2023-01-18T10:22:29.051Z,35.72
2023-01-18T10:25:10.589Z,35.70
2023-01-18T10:27:43.581Z,35.75
2023-01-18T10:30:39.731Z,37.05
2023-01-18T10:33:17.279Z,36.10
2023-01-18T10:35:48.155Z,40.30
2023-01-18T10:38:20.671Z,36.47
2023-01-18T10:41:02.590Z,36.58
2023-01-18T10:43:32.053Z,39.17
2023-01-18T10:45:59.588Z,39.22
2023-01-18T10:48:31.407Z,40.25
2023-01-18T10:51:02.025Z,37.25
2023-01-18T10:53:35.318Z,38.58
2023-01-18T10:56:17.111Z,38.75
2023-01-18T10:58:51.026Z,43.58
2023-01-18T11:01:24.028Z,37.35
2023-01-18T11:03:55.646Z,36.05
2023-01-18T11:06:26.362Z,38.42
2023-01-18T11:08:54.103Z,34.80
2023-01-18T11:11:50.023Z,36.55
2023-01-18T11:14:29.437Z,39.55
2023-01-18T11:17:11.566Z,37.28
2023-01-18T11:19:41.772Z,35.33
2023-01-18T11:22:17.751Z,38.28
2023-01-18T11:24:46.003Z,38.17
2023-01-18T11:27:21.398Z,35.90
2023-01-18T11:29:50.541Z,35.97
2023-01-18T11:32:25.269Z,36.08
2023-01-18T11:38:48.662Z,32.97
2023-01-18T11:41:23.575Z,35.65
2023-01-18T11:44:06.562Z,32.75
2023-01-18T11:46:51.020Z,32.90
2023-01-18T11:49:24.676Z,30.75
2023-01-18T11:52:02.263Z,30.58
2023-01-18T11:54:40.666Z,32.75
2023-01-18T11:57:12.835Z,30.70
2023-01-18T11:59:48.739Z,32.75
2023-01-18T12:02:56.249Z,31.73
2023-01-18T12:05:37.435Z,30.83
2023-01-18T12:08:14.387Z,30.42
2023-01-18T12:11:17.853Z,28.67
2023-01-18T12:14:03.565Z,28.08
2023-01-18T12:16:33.844Z,29.77
2023-01-18T12:19:16.454Z,28.70
2023-01-18T12:22:12.813Z,28.25
2023-01-18T12:24:45.795Z,28.02
2023-01-18T12:27:34.494Z,30.95
2023-01-18T12:30:21.542Z,31.10
2023-01-18T12:33:02.308Z,29.92
2023-01-18T12:35:42.766Z,30.70
2023-01-18T12:38:24.716Z,29.77
2023-01-18T12:41:11.920Z,30.52
2023-01-18T12:44:10.881Z,29.30
2023-01-18T12:47:00.000Z,27.83
2023-01-18T12:49:34.998Z,31.35
2023-01-18T12:52:18.175Z,29.25
2023-01-18T12:57:26.930Z,31.20
2023-01-18T12:59:59.837Z,33.10
2023-01-18T13:02:36.664Z,32.97
2023-01-18T13:05:23.619Z,32.42
2023-01-18T13:08:01.337Z,31.58
2023-01-18T13:10:29.832Z,33.40
2023-01-18T13:12:58.459Z,35.08
2023-01-18T13:15:42.663Z,33.63
2023-01-18T13:18:21.849Z,34.97
2023-01-18T13:21:16.815Z,35.28
2023-01-18T13:24:05.419Z,31.60
2023-01-18T13:26:34.585Z,33.50
2023-01-18T13:29:28.473Z,30.90
2023-01-18T13:31:57.722Z,31.38
2023-01-18T13:34:31.995Z,32.80
2023-01-18T13:37:13.965Z,30.10
2023-01-18T13:39:48.603Z,32.60
2023-01-18T13:42:25.032Z,32.85
2023-01-18T13:45:19.152Z,30.58
2023-01-18T13:47:50.219Z,34.25
2023-01-18T13:50:39.516Z,35.67
2023-01-18T13:53:14.031Z,36.70
2023-01-18T13:55:48.039Z,33.33
2023-01-18T13:58:26.558Z,35.40
2023-01-18T14:00:58.358Z,32.30
2023-01-18T14:03:29.907Z,35.28
2023-01-18T14:05:58.617Z,37.65
2023-01-18T14:08:31.425Z,33.53
2023-01-18T14:11:04.676Z,37.43
2023-01-18T14:13:55.139Z,35.08
2023-01-18T14:16:32.095Z,36.38
2023-01-18T14:19:22.139Z,39.83
2023-01-18T14:21:53.477Z,38.28
2023-01-18T14:24:51.416Z,36.53
2023-01-18T14:27:24.307Z,33.92
2023-01-18T14:30:11.305Z,35.00
2023-01-18T14:32:54.204Z,37.83
2023-01-18T14:35:25.738Z,36.38
2023-01-18T14:38:17.860Z,35.97
2023-01-18T14:40:48.486Z,36.13
2023-01-18T14:43:26.050Z,34.03
2023-01-18T14:46:07.595Z,32.95
2023-01-18T14:48:48.640Z,34.15
2023-01-18T14:51:18.941Z,35.55
2023-01-18T14:53:52.799Z,33.55
2023-01-18T14:59:03.246Z,30.98
2023-01-18T15:01:38.418Z,35.60
2023-01-18T15:04:19.621Z,31.98
2023-01-18T15:06:51.965Z,32.08
2023-01-18T15:09:22.757Z,35.70
2023-01-18T15:11:53.488Z,32.38
2023-01-18T15:14:31.458Z,31.92
2023-01-18T15:17:00.651Z,33.65
2023-01-18T15:19:44.123Z,34.05
2023-01-18T15:22:14.663Z,33.33
2023-01-18T15:24:45.130Z,31.42
2023-01-18T15:27:16.468Z,33.67
2023-01-18T15:29:55.690Z,32.50
2023-01-18T15:32:29.653Z,33.53
2023-01-18T15:34:59.191Z,33.50
2023-01-18T15:37:33.689Z,33.03
2023-01-18T15:40:22.717Z,32.22
2023-01-18T15:43:05.932Z,33.10
2023-01-18T15:45:38.722Z,35.63
2023-01-18T15:48:22.418Z,35.53
2023-01-18T15:50:53.245Z,35.45
2023-01-18T15:53:34.144Z,33.60
2023-01-18T15:56:07.186Z,33.55
2023-01-18T15:58:50.033Z,36.28
2023-01-18T16:01:29.365Z,34.22
2023-01-18T16:04:05.682Z,33.72
2023-01-18T16:06:37.119Z,33.20
2023-01-18T16:09:12.653Z,33.95
2023-01-18T16:11:40.692Z,34.03
2023-01-18T16:14:33.088Z,34.45
2023-01-18T16:17:18.061Z,38.00
2023-01-18T16:19:48.423Z,35.38
2023-01-18T16:22:23.650Z,35.25
2023-01-18T16:25:06.392Z,36.85
2023-01-18T16:27:46.588Z,34.83
2023-01-18T16:30:20.442Z,35.00
2023-01-18T16:32:48.211Z,34.38
2023-01-18T16:35:18.464Z,32.92
2023-01-18T16:37:47.018Z,33.00
2023-01-18T16:40:21.116Z,34.63
2023-01-18T16:43:05.368Z,33.78
2023-01-18T16:45:38.092Z,35.83
2023-01-18T16:48:06.776Z,33.93
2023-01-18T16:50:34.554Z,32.78
2023-01-18T16:53:03.908Z,33.90
2023-01-18T16:55:31.857Z,32.85
2023-01-18T16:58:00.265Z,35.50
2023-01-18T17:00:35.629Z,35.65
2023-01-18T17:03:03.552Z,33.70
2023-01-18T17:05:31.111Z,33.42
2023-01-18T17:08:00.394Z,35.22
2023-01-18T17:10:38.995Z,33.55
2023-01-18T17:13:06.937Z,34.15
2023-01-18T17:15:34.904Z,33.70
2023-01-18T17:18:04.886Z,35.47
2023-01-18T17:20:33.050Z,35.80
2023-01-18T17:23:01.865Z,34.63
2023-01-18T17:25:29.582Z,34.60
2023-01-18T17:27:58.430Z,33.45
2023-01-18T17:30:26.042Z,34.58
2023-01-18T17:32:53.662Z,31.25
2023-01-18T17:35:23.269Z,34.35
2023-01-18T17:37:57.455Z,33.13
2023-01-18T17:40:40.155Z,34.83
2023-01-18T17:43:15.163Z,36.42
2023-01-18T17:45:58.717Z,35.17
2023-01-18T17:48:28.609Z,34.53
2023-01-18T17:50:56.212Z,34.38
2023-01-18T17:53:23.701Z,35.30
2023-01-18T17:55:51.651Z,36.22
2023-01-18T17:58:19.921Z,35.60
2023-01-18T18:00:48.013Z,38.10
2023-01-18T18:03:16.479Z,35.75
2023-01-18T18:05:45.371Z,39.47
2023-01-18T18:08:12.962Z,35.25
2023-01-18T18:10:43.363Z,38.33
2023-01-18T18:13:11.323Z,37.22
2023-01-18T18:15:39.294Z,34.30
2023-01-18T18:18:12.305Z,35.75
2023-01-18T18:20:50.632Z,34.30
2023-01-18T18:23:18.136Z,34.28
2023-01-18T18:25:47.671Z,34.55
2023-01-18T18:28:15.660Z,35.33
2023-01-18T18:30:49.081Z,34.22
2023-01-18T18:33:16.972Z,36.70
2023-01-18T18:35:48.141Z,35.65
2023-01-18T18:38:18.892Z,37.20
2023-01-18T18:40:46.933Z,36.08
2023-01-18T18:43:14.443Z,36.45
2023-01-18T18:45:44.641Z,35.60
2023-01-18T18:48:13.191Z,36.70
2023-01-18T18:50:41.438Z,36.40
2023-01-18T18:53:09.063Z,36.90
2023-01-18T18:55:36.702Z,37.33
2023-01-18T18:58:06.428Z,35.08
2023-01-18T19:00:35.056Z,37.63
2023-01-18T19:03:23.954Z,35.97
2023-01-18T19:05:52.845Z,34.22
2023-01-18T19:08:21.437Z,37.35
2023-01-18T19:10:50.606Z,38.28
2023-01-18T19:13:19.326Z,36.10
2023-01-18T19:15:47.952Z,36.92
2023-01-18T19:18:15.784Z,38.63
2023-01-18T19:20:43.441Z,36.97
2023-01-18T19:23:11.424Z,37.08
2023-01-18T19:25:39.573Z,36.40
2023-01-18T19:28:07.639Z,39.33
2023-01-18T19:30:35.599Z,37.90
2023-01-18T19:33:03.647Z,37.55
2023-01-18T19:35:31.538Z,38.95
2023-01-18T19:38:00.996Z,37.58
2023-01-18T19:40:28.631Z,38.70
2023-01-18T19:42:59.562Z,37.17
2023-01-18T19:45:28.951Z,39.05
2023-01-18T19:48:00.073Z,38.08
2023-01-18T19:50:29.425Z,39.58
2023-01-18T19:52:57.943Z,38.38
2023-01-18T19:55:25.789Z,38.78
2023-01-18T19:57:56.793Z,38.67
2023-01-18T20:00:25.812Z,38.67
2023-01-18T20:02:53.705Z,37.38
2023-01-18T20:05:21.915Z,37.60
2023-01-18T20:07:50.420Z,39.63
2023-01-18T20:10:20.464Z,35.28
2023-01-18T20:12:49.343Z,38.10
2023-01-18T20:15:18.907Z,39.38
2023-01-18T20:17:46.362Z,39.10
2023-01-18T20:20:20.986Z,39.40
2023-01-18T20:22:57.392Z,41.25
2023-01-18T20:25:25.595Z,38.95
2023-01-18T20:27:53.436Z,37.80
2023-01-18T20:30:21.754Z,40.58
2023-01-18T20:32:49.752Z,39.58
2023-01-18T20:35:17.829Z,42.10
2023-01-18T20:37:45.686Z,40.75
2023-01-18T20:40:13.871Z,40.08
2023-01-18T20:42:41.561Z,42.33
2023-01-18T20:45:09.462Z,42.60
2023-01-18T20:47:37.147Z,42.65
2023-01-18T20:50:05.318Z,42.33
2023-01-18T20:52:32.908Z,43.83
2023-01-18T20:55:00.916Z,40.65
2023-01-18T20:57:31.984Z,40.88
2023-01-18T21:00:00.101Z,42.13
2023-01-18T21:02:28.082Z,41.42
2023-01-18T21:04:56.172Z,41.28
2023-01-18T21:07:24.191Z,41.63
2023-01-18T21:09:52.144Z,37.42
2023-01-18T21:12:19.771Z,41.05
2023-01-18T21:14:48.050Z,41.05
2023-01-18T21:17:16.178Z,41.22
2023-01-18T21:19:46.154Z,37.60
2023-01-18T21:22:15.071Z,38.85
2023-01-18T21:24:43.136Z,38.47
2023-01-18T21:27:10.879Z,40.22
2023-01-18T21:29:38.598Z,43.08
2023-01-18T21:32:06.821Z,39.97
2023-01-18T21:34:34.715Z,39.35
2023-01-18T21:37:02.831Z,40.53
2023-01-18T21:39:30.999Z,43.00
2023-01-18T21:42:17.693Z,39.47
2023-01-18T21:45:04.264Z,39.55
2023-01-18T21:47:32.701Z,43.42
2023-01-18T21:50:18.972Z,40.20
2023-01-18T21:53:06.161Z,45.40
2023-01-18T21:55:40.885Z,40.38
2023-01-18T21:58:26.862Z,40.25
2023-01-18T22:00:54.974Z,39.33
2023-01-18T22:03:22.547Z,38.30
2023-01-18T22:05:50.030Z,39.22
2023-01-18T22:08:18.330Z,36.72
2023-01-18T22:10:50.003Z,37.70
2023-01-18T22:13:17.959Z,36.72
2023-01-18T22:15:45.457Z,35.65
2023-01-18T22:18:12.927Z,32.63
2023-01-18T22:20:40.406Z,32.92
2023-01-18T22:23:07.951Z,36.47
2023-01-18T22:25:36.004Z,33.72
2023-01-18T22:28:04.039Z,34.47
2023-01-18T22:30:31.942Z,33.35
2023-01-18T22:33:00.141Z,42.55
2023-01-18T22:35:30.725Z,34.70
2023-01-18T22:37:58.639Z,36.75
2023-01-18T22:40:26.394Z,33.42
2023-01-18T22:42:54.811Z,35.13
2023-01-18T22:45:22.435Z,33.22
2023-01-18T22:47:50.030Z,36.50
2023-01-18T22:50:17.752Z,37.15
2023-01-18T22:52:45.727Z,35.42
2023-01-18T22:55:14.468Z,36.47
2023-01-18T22:57:42.163Z,36.30
2023-01-18T23:00:11.271Z,36.80
2023-01-18T23:02:39.276Z,37.22
2023-01-18T23:05:07.590Z,35.00
2023-01-18T23:07:35.203Z,33.25
2023-01-18T23:10:02.724Z,33.83
2023-01-18T23:12:30.224Z,33.03
2023-01-18T23:15:16.278Z,36.75
2023-01-18T23:17:45.120Z,34.28
2023-01-18T23:20:15.993Z,34.70
2023-01-18T23:22:45.102Z,34.20
2023-01-18T23:25:12.931Z,30.13
2023-01-18T23:27:40.611Z,34.65
2023-01-18T23:30:09.270Z,33.35
2023-01-18T23:32:37.456Z,37.28
2023-01-18T23:35:06.155Z,31.55
2023-01-18T23:37:34.240Z,31.52
2023-01-18T23:40:20.615Z,32.47
2023-01-18T23:43:07.171Z,30.67
2023-01-18T23:45:53.102Z,29.48
2023-01-18T23:48:40.006Z,32.67
2023-01-18T23:51:27.697Z,31.33
2023-01-18T23:54:14.052Z,34.75
2023-01-18T23:56:42.654Z,33.00
2023-01-18T23:59:10.718Z,35.22
